METAR LSZS 182220Z AUTO VRB03KT 9999 -DZ BKN035 03/01 Q1028